createdAt,value
2022-08-01T00:00:15.594Z,6.08
2022-08-01T00:02:42.594Z,6.27
2022-08-01T00:05:11.839Z,6.65
2022-08-01T00:07:39.603Z,6.08
2022-08-01T00:10:14.503Z,6.65
2022-08-01T00:12:42.946Z,7.22
2022-08-01T00:15:12.942Z,6.27
2022-08-01T00:17:40.588Z,6.27
2022-08-01T00:20:11.415Z,6.27
2022-08-01T00:22:39.351Z,6.65
2022-08-01T00:25:07.803Z,6.27
2022-08-01T00:27:37.681Z,7.60
2022-08-01T00:30:13.451Z,6.84
2022-08-01T00:32:45.551Z,6.84
2022-08-01T00:35:12.770Z,7.79
2022-08-01T00:37:39.714Z,7.03
2022-08-01T00:40:08.585Z,7.03
2022-08-01T00:42:39.102Z,7.03
2022-08-01T00:45:09.396Z,7.60
2022-08-01T00:47:36.171Z,8.17
2022-08-01T00:50:06.197Z,7.79
2022-08-01T00:52:34.904Z,7.79
2022-08-01T00:55:02.234Z,7.98
2022-08-01T00:58:03.055Z,7.79
2022-08-01T01:00:18.149Z,8.17
2022-08-01T01:02:45.356Z,7.98
2022-08-01T01:05:12.256Z,7.41
2022-08-01T01:07:59.960Z,7.60
2022-08-01T01:10:53.193Z,7.03
2022-08-01T01:13:50.085Z,8.74
2022-08-01T01:16:22.760Z,7.98
2022-08-01T01:18:55.886Z,7.79
2022-08-01T01:21:24.819Z,7.60
2022-08-01T01:24:09.212Z,7.98
2022-08-01T01:27:13.508Z,8.17
2022-08-01T01:30:00.068Z,8.74
2022-08-01T01:32:45.943Z,8.55
2022-08-01T01:35:28.046Z,8.74
2022-08-01T01:38:25.363Z,8.36
2022-08-01T01:40:54.755Z,7.98
2022-08-01T01:43:28.854Z,7.79
2022-08-01T01:46:01.852Z,7.98
2022-08-01T01:48:30.486Z,7.79
2022-08-01T01:50:58.760Z,8.17
2022-08-01T01:53:29.078Z,7.79
2022-08-01T01:55:59.760Z,8.36
2022-08-01T01:58:29.176Z,8.93
2022-08-01T02:01:02.738Z,8.55
2022-08-01T02:03:32.593Z,9.31
2022-08-01T02:06:02.671Z,9.12
2022-08-01T02:08:33.938Z,8.17
2022-08-01T02:11:19.782Z,8.93
2022-08-01T02:13:59.483Z,9.50
2022-08-01T02:16:30.677Z,8.74
2022-08-01T02:18:58.145Z,8.36
2022-08-01T02:21:50.361Z,8.74
2022-08-01T02:24:41.857Z,7.41
2022-08-01T02:27:18.651Z,7.98
2022-08-01T02:29:58.370Z,8.17
2022-08-01T02:32:33.044Z,8.55
2022-08-01T02:35:04.071Z,8.36
2022-08-01T02:37:38.524Z,8.17
2022-08-01T02:40:15.799Z,7.60
2022-08-01T02:42:48.567Z,7.41
2022-08-01T02:45:21.505Z,8.17
2022-08-01T02:47:53.092Z,8.17
2022-08-01T02:50:21.803Z,7.41
2022-08-01T02:52:53.426Z,9.12
2022-08-01T02:55:21.574Z,7.79
2022-08-01T02:58:00.130Z,7.79
2022-08-01T03:00:32.092Z,8.36
2022-08-01T03:03:01.805Z,8.17
2022-08-01T03:05:31.391Z,8.17
2022-08-01T03:08:02.762Z,7.03
2022-08-01T03:10:34.062Z,7.22
2022-08-01T03:13:04.577Z,7.79
2022-08-01T03:15:36.757Z,7.41
2022-08-01T03:18:07.649Z,7.79
2022-08-01T03:20:35.849Z,8.36
2022-08-01T03:23:08.247Z,7.03
2022-08-01T03:25:39.677Z,6.84
2022-08-01T03:28:09.812Z,7.41
2022-08-01T03:30:39.912Z,7.41
2022-08-01T03:33:07.594Z,6.84
2022-08-01T03:35:40.294Z,7.22
2022-08-01T03:38:16.189Z,7.22
2022-08-01T03:41:03.253Z,7.03
2022-08-01T03:43:58.610Z,8.17
2022-08-01T03:46:43.264Z,8.36
2022-08-01T03:49:19.543Z,8.55
2022-08-01T03:51:50.561Z,7.98
2022-08-01T03:54:23.616Z,8.17
2022-08-01T03:56:52.853Z,7.60
2022-08-01T03:59:21.616Z,7.60
2022-08-01T04:01:49.345Z,8.36
2022-08-01T04:04:16.620Z,8.17
2022-08-01T04:06:46.673Z,8.55
2022-08-01T04:09:14.112Z,8.36
2022-08-01T04:11:42.054Z,8.17
2022-08-01T04:14:09.532Z,8.93
2022-08-01T04:16:36.450Z,7.60
2022-08-01T04:19:03.878Z,9.12
2022-08-01T04:21:33.459Z,8.55
2022-08-01T04:24:08.180Z,9.50
2022-08-01T04:26:38.608Z,8.55
2022-08-01T04:29:07.857Z,8.17
2022-08-01T04:31:39.221Z,8.74
2022-08-01T04:34:07.812Z,8.55
2022-08-01T04:36:37.931Z,8.55
2022-08-01T04:39:07.266Z,8.36
2022-08-01T04:41:35.126Z,9.31
2022-08-01T04:44:03.660Z,9.69
2022-08-01T04:46:33.207Z,7.98
2022-08-01T04:49:01.481Z,7.98
2022-08-01T04:51:28.292Z,10.45
2022-08-01T04:53:55.112Z,8.74
2022-08-01T04:56:22.215Z,9.31
2022-08-01T04:59:09.552Z,10.26
2022-08-01T05:01:51.406Z,9.69
2022-08-01T05:04:18.265Z,9.69
2022-08-01T05:06:44.979Z,9.31
2022-08-01T05:09:12.335Z,10.45
2022-08-01T05:11:39.055Z,9.50
2022-08-01T05:14:05.981Z,8.74
2022-08-01T05:16:32.665Z,10.07
2022-08-01T05:18:59.408Z,10.07
2022-08-01T05:21:26.243Z,9.50
2022-08-01T05:23:53.004Z,9.31
2022-08-01T05:26:20.853Z,9.50
2022-08-01T05:28:47.993Z,11.40
2022-08-01T05:31:14.832Z,10.07
2022-08-01T05:33:41.553Z,9.88
2022-08-01T05:36:08.422Z,8.36
2022-08-01T05:38:35.245Z,7.41
2022-08-01T05:41:02.224Z,8.74
2022-08-01T05:43:29.385Z,7.60
2022-08-01T05:45:56.705Z,8.36
2022-08-01T05:48:23.698Z,7.79
2022-08-01T05:50:52.233Z,8.17
2022-08-01T05:53:21.587Z,7.60
2022-08-01T05:55:48.867Z,7.03
2022-08-01T05:58:15.580Z,7.41
2022-08-01T06:00:42.386Z,7.03
2022-08-01T06:03:09.116Z,7.41
2022-08-01T06:05:35.814Z,6.84
2022-08-01T06:08:02.758Z,6.65
2022-08-01T06:10:29.470Z,6.84
2022-08-01T06:12:56.471Z,7.41
2022-08-01T06:15:23.239Z,7.03
2022-08-01T06:17:49.969Z,6.46
2022-08-01T06:20:16.708Z,6.27
2022-08-01T06:22:43.670Z,5.89
2022-08-01T06:25:10.975Z,5.51
2022-08-01T06:27:37.783Z,7.22
2022-08-01T06:30:08.514Z,6.27
2022-08-01T06:32:35.279Z,6.65
2022-08-01T06:35:02.071Z,7.03
2022-08-01T06:37:33.739Z,5.70
2022-08-01T06:40:06.666Z,5.13
2022-08-01T06:42:36.731Z,6.27
2022-08-01T06:45:14.311Z,6.46
2022-08-01T06:47:44.053Z,5.89
2022-08-01T06:50:14.315Z,5.89
2022-08-01T06:52:42.427Z,5.70
2022-08-01T06:55:10.578Z,5.70
2022-08-01T06:57:37.989Z,5.51
2022-08-01T07:00:12.504Z,5.32
2022-08-01T07:02:39.385Z,5.13
2022-08-01T07:05:06.635Z,4.94
2022-08-01T07:07:33.763Z,4.94
2022-08-01T07:10:00.450Z,4.56
2022-08-01T07:12:27.245Z,4.75
2022-08-01T07:14:54.087Z,4.75
2022-08-01T07:17:21.792Z,4.75
2022-08-01T07:19:49.278Z,5.13
2022-08-01T07:22:23.432Z,4.75
2022-08-01T07:24:54.546Z,4.37
2022-08-01T07:27:25.498Z,5.13
2022-08-01T07:29:53.733Z,7.79
2022-08-01T07:32:21.329Z,4.56
2022-08-01T07:34:48.306Z,5.70
2022-08-01T07:37:15.110Z,4.75
2022-08-01T07:39:41.985Z,4.94
2022-08-01T07:42:12.522Z,5.89
2022-08-01T07:44:40.016Z,4.75
2022-08-01T07:47:07.357Z,5.32
2022-08-01T07:49:39.959Z,5.13
2022-08-01T07:52:08.066Z,5.13
2022-08-01T07:54:35.326Z,4.94
2022-08-01T07:57:04.258Z,5.70
2022-08-01T07:59:31.362Z,5.13
2022-08-01T08:01:58.913Z,5.32
2022-08-01T08:04:27.661Z,5.51
2022-08-01T08:06:54.969Z,5.89
2022-08-01T08:09:22.234Z,5.70
2022-08-01T08:11:49.439Z,6.27
2022-08-01T08:14:18.274Z,5.51
2022-08-01T08:16:46.042Z,5.89
2022-08-01T08:19:13.076Z,6.84
2022-08-01T08:21:40.963Z,6.27
2022-08-01T08:24:26.374Z,6.46
2022-08-01T08:27:00.641Z,8.36
2022-08-01T08:29:30.687Z,9.50
2022-08-01T08:31:58.689Z,9.50
2022-08-01T08:34:28.365Z,11.40
2022-08-01T08:36:57.344Z,8.17
2022-08-01T08:39:26.389Z,8.74
2022-08-01T08:41:53.582Z,9.12
2022-08-01T08:44:21.213Z,9.31
2022-08-01T08:46:53.382Z,7.22
2022-08-01T08:49:27.769Z,6.65
2022-08-01T08:52:05.796Z,6.65
2022-08-01T08:54:38.672Z,5.70
2022-08-01T08:57:06.439Z,5.32
2022-08-01T08:59:33.482Z,3.80
2022-08-01T09:02:00.708Z,4.18
2022-08-01T09:04:27.988Z,4.18
2022-08-01T09:06:55.860Z,3.80
2022-08-01T09:09:24.379Z,4.18
2022-08-01T09:12:06.637Z,3.80
2022-08-01T09:14:36.099Z,3.80
2022-08-01T09:17:12.121Z,3.42
2022-08-01T09:19:46.085Z,2.66
2022-08-01T09:22:22.286Z,3.04
2022-08-01T09:25:11.825Z,3.23
2022-08-01T09:27:44.222Z,3.23
2022-08-01T09:30:23.356Z,2.85
2022-08-01T09:33:01.746Z,2.85
2022-08-01T09:35:43.459Z,3.23
2022-08-01T09:38:30.198Z,2.85
2022-08-01T09:41:01.509Z,3.99
2022-08-01T09:43:32.213Z,3.42
2022-08-01T09:46:05.431Z,3.42
2022-08-01T09:48:33.681Z,3.23
2022-08-01T09:51:07.103Z,2.66
2022-08-01T09:53:52.017Z,3.04
2022-08-01T09:56:22.714Z,3.04
2022-08-01T09:59:01.579Z,3.04
2022-08-01T10:01:44.442Z,2.47
2022-08-01T10:04:23.814Z,2.85
2022-08-01T10:07:03.012Z,2.66
2022-08-01T10:09:35.813Z,3.23
2022-08-01T10:12:15.515Z,2.66
2022-08-01T10:14:50.670Z,2.85
2022-08-01T10:17:20.952Z,2.66
2022-08-01T10:19:55.610Z,2.47
2022-08-01T10:22:27.891Z,2.66
2022-08-01T10:24:58.271Z,2.85
2022-08-01T10:27:38.014Z,2.66
2022-08-01T10:30:19.249Z,2.85
2022-08-01T10:32:50.914Z,2.28
2022-08-01T10:35:45.839Z,2.28
2022-08-01T10:38:10.702Z,2.66
2022-08-01T10:40:43.001Z,2.66
2022-08-01T10:43:21.729Z,2.47
2022-08-01T10:45:51.583Z,3.04
2022-08-01T10:48:44.039Z,2.66
2022-08-01T10:51:18.438Z,2.66
2022-08-01T10:54:09.802Z,2.47
2022-08-01T10:56:48.735Z,2.28
2022-08-01T10:59:49.390Z,2.28
2022-08-01T11:02:32.114Z,2.85
2022-08-01T11:05:08.116Z,2.85
2022-08-01T11:07:53.857Z,2.66
2022-08-01T11:10:30.767Z,2.47
2022-08-01T11:12:57.793Z,2.47
2022-08-01T11:15:29.274Z,2.66
2022-08-01T11:18:01.138Z,2.66
2022-08-01T11:20:39.457Z,2.47
2022-08-01T11:23:10.735Z,2.85
2022-08-01T11:26:06.635Z,2.85
2022-08-01T11:28:33.838Z,3.04
2022-08-01T11:31:11.725Z,2.85
2022-08-01T11:33:40.999Z,2.85
2022-08-01T11:36:14.501Z,2.66
2022-08-01T11:39:14.124Z,2.47
2022-08-01T11:41:45.030Z,2.66
2022-08-01T11:44:26.817Z,2.47
2022-08-01T11:47:09.667Z,2.09
2022-08-01T11:49:49.126Z,2.66
2022-08-01T11:52:30.378Z,2.09
2022-08-01T11:55:02.981Z,2.85
2022-08-01T11:57:35.664Z,3.04
2022-08-01T12:00:18.600Z,2.66
2022-08-01T12:03:09.942Z,2.09
2022-08-01T12:05:43.344Z,2.66
2022-08-01T12:08:10.715Z,2.28
2022-08-01T12:10:49.628Z,2.28
2022-08-01T12:13:18.917Z,3.04
2022-08-01T12:15:47.126Z,2.85
2022-08-01T12:18:14.827Z,3.04
2022-08-01T12:20:55.994Z,2.85
2022-08-01T12:23:23.322Z,3.04
2022-08-01T12:25:54.143Z,2.66
2022-08-01T12:28:20.871Z,2.47
2022-08-01T12:30:50.541Z,2.47
2022-08-01T12:33:22.048Z,2.85
2022-08-01T12:35:49.279Z,2.28
2022-08-01T12:38:20.218Z,2.28
2022-08-01T12:40:53.375Z,2.85
2022-08-01T12:43:28.661Z,2.47
2022-08-01T12:46:00.994Z,2.28
2022-08-01T12:48:31.147Z,1.90
2022-08-01T12:51:02.032Z,2.66
2022-08-01T12:53:40.220Z,2.85
2022-08-01T12:56:09.188Z,2.85
2022-08-01T12:58:36.666Z,2.47
2022-08-01T13:01:06.777Z,2.28
2022-08-01T13:03:35.471Z,3.04
2022-08-01T13:06:17.609Z,2.47
2022-08-01T13:08:46.683Z,2.28
2022-08-01T13:11:16.608Z,3.23
2022-08-01T13:13:49.375Z,2.85
2022-08-01T13:16:49.173Z,2.47
2022-08-01T13:19:15.147Z,2.66
2022-08-01T13:21:58.430Z,2.66
2022-08-01T13:24:30.313Z,2.66
2022-08-01T13:27:01.433Z,3.04
2022-08-01T13:29:44.165Z,2.47
2022-08-01T13:32:28.710Z,2.09
2022-08-01T13:35:10.308Z,1.90
2022-08-01T13:37:38.789Z,2.47
2022-08-01T13:40:08.509Z,2.28
2022-08-01T13:42:36.019Z,1.71
2022-08-01T13:45:13.885Z,2.28
2022-08-01T13:48:04.085Z,2.28
2022-08-01T13:50:32.633Z,2.28
2022-08-01T13:52:59.430Z,2.28
2022-08-01T13:55:29.891Z,1.90
2022-08-01T13:58:00.878Z,1.90
2022-08-01T14:00:27.649Z,1.52
2022-08-01T14:02:54.428Z,2.09
2022-08-01T14:05:21.162Z,2.47
2022-08-01T14:07:48.590Z,1.71
2022-08-01T14:10:19.948Z,1.71
2022-08-01T14:12:49.352Z,1.71
2022-08-01T14:15:38.419Z,1.71
2022-08-01T14:18:06.107Z,1.90
2022-08-01T14:20:34.780Z,1.52
2022-08-01T14:23:02.065Z,1.71
2022-08-01T14:26:03.014Z,1.90
2022-08-01T14:28:16.114Z,1.33
2022-08-01T14:30:43.705Z,1.52
2022-08-01T14:33:13.240Z,1.71
2022-08-01T14:36:05.443Z,1.52
2022-08-01T14:38:31.581Z,1.52
2022-08-01T14:41:00.267Z,1.52
2022-08-01T14:43:32.944Z,1.71
2022-08-01T14:46:05.067Z,1.33
2022-08-01T14:48:32.894Z,1.90
2022-08-01T14:51:03.698Z,1.90
2022-08-01T14:53:34.271Z,1.90
2022-08-01T14:56:04.547Z,1.52
2022-08-01T14:58:31.334Z,1.52
2022-08-01T15:00:59.381Z,1.71
2022-08-01T15:03:27.322Z,1.90
2022-08-01T15:05:54.101Z,1.71
2022-08-01T15:08:20.846Z,1.33
2022-08-01T15:10:47.568Z,1.71
2022-08-01T15:13:14.831Z,1.71
2022-08-01T15:15:41.577Z,1.71
2022-08-01T15:18:08.621Z,1.33
2022-08-01T15:20:35.554Z,1.71
2022-08-01T15:23:02.500Z,1.52
2022-08-01T15:25:40.858Z,1.71
2022-08-01T15:28:13.240Z,1.52
2022-08-01T15:30:40.410Z,1.52
2022-08-01T15:33:07.744Z,1.90
2022-08-01T15:35:35.013Z,1.90
2022-08-01T15:38:02.004Z,1.90
2022-08-01T15:40:29.522Z,1.90
2022-08-01T15:42:56.511Z,2.09
2022-08-01T15:45:46.472Z,1.90
2022-08-01T15:48:10.349Z,1.90
2022-08-01T15:50:39.139Z,1.90
2022-08-01T15:53:07.369Z,2.09
2022-08-01T15:55:38.664Z,2.09
2022-08-01T15:58:06.083Z,1.90
2022-08-01T16:00:39.396Z,2.47
2022-08-01T16:03:10.464Z,2.28
2022-08-01T16:05:43.169Z,2.09
2022-08-01T16:08:14.476Z,2.09
2022-08-01T16:10:42.713Z,2.09
2022-08-01T16:13:10.201Z,2.28
2022-08-01T16:15:39.252Z,1.71
2022-08-01T16:18:10.056Z,1.90
2022-08-01T16:20:41.489Z,1.52
2022-08-01T16:23:11.346Z,2.09
2022-08-01T16:25:38.345Z,1.90
2022-08-01T16:28:05.413Z,1.90
2022-08-01T16:30:32.532Z,2.09
2022-08-01T16:33:00.305Z,2.09
2022-08-01T16:35:36.648Z,2.47
2022-08-01T16:38:07.591Z,2.09
2022-08-01T16:40:46.352Z,1.90
2022-08-01T16:43:15.085Z,2.09
2022-08-01T16:45:43.231Z,2.28
2022-08-01T16:48:12.512Z,1.90
2022-08-01T16:50:39.860Z,2.28
2022-08-01T16:53:06.961Z,2.28
2022-08-01T16:55:49.560Z,2.28
2022-08-01T16:58:27.339Z,2.28
2022-08-01T17:00:57.069Z,2.09
2022-08-01T17:03:51.388Z,2.47
2022-08-01T17:06:13.826Z,2.66
2022-08-01T17:08:46.149Z,2.28
2022-08-01T17:11:15.035Z,1.90
2022-08-01T17:13:42.740Z,2.09
2022-08-01T17:16:10.225Z,1.90
2022-08-01T17:18:37.338Z,2.28
2022-08-01T17:21:04.501Z,1.90
2022-08-01T17:23:35.133Z,2.47
2022-08-01T17:26:02.184Z,1.90
2022-08-01T17:28:28.921Z,2.47
2022-08-01T17:30:55.754Z,2.28
2022-08-01T17:33:22.502Z,2.28
2022-08-01T17:35:49.436Z,1.90
2022-08-01T17:38:16.385Z,2.09
2022-08-01T17:40:43.890Z,2.09
2022-08-01T17:43:10.660Z,2.28
2022-08-01T17:45:50.931Z,2.09
2022-08-01T17:48:21.583Z,2.09
2022-08-01T17:50:49.439Z,2.28
2022-08-01T17:53:21.057Z,2.28
2022-08-01T17:55:55.249Z,1.90
2022-08-01T17:58:50.059Z,2.28
2022-08-01T18:01:14.218Z,2.28
2022-08-01T18:03:41.959Z,1.90
2022-08-01T18:06:13.454Z,2.09
2022-08-01T18:08:42.044Z,2.09
2022-08-01T18:11:09.773Z,2.28
2022-08-01T18:13:40.505Z,2.09
2022-08-01T18:16:11.380Z,2.47
2022-08-01T18:18:39.836Z,2.28
2022-08-01T18:21:08.002Z,2.09
2022-08-01T18:23:35.172Z,2.28
2022-08-01T18:26:06.838Z,2.09
2022-08-01T18:28:41.634Z,2.28
2022-08-01T18:31:11.784Z,2.09
2022-08-01T18:33:39.008Z,1.90
2022-08-01T18:36:09.795Z,2.66
2022-08-01T18:38:47.891Z,2.28
2022-08-01T18:41:14.620Z,2.47
2022-08-01T18:43:41.467Z,2.28
2022-08-01T18:46:08.432Z,2.66
2022-08-01T18:48:35.108Z,2.47
2022-08-01T18:51:01.838Z,2.47
2022-08-01T18:53:28.721Z,2.66
2022-08-01T18:55:55.538Z,2.66
2022-08-01T18:58:22.276Z,2.47
2022-08-01T19:00:49.204Z,2.28
2022-08-01T19:03:16.808Z,2.28
2022-08-01T19:05:44.044Z,2.85
2022-08-01T19:08:11.681Z,2.66
2022-08-01T19:10:43.484Z,2.85
2022-08-01T19:13:10.280Z,2.85
2022-08-01T19:15:37.016Z,3.04
2022-08-01T19:18:04.677Z,2.47
2022-08-01T19:20:31.702Z,2.66
2022-08-01T19:22:58.983Z,2.66
2022-08-01T19:25:26.657Z,2.66
2022-08-01T19:27:58.438Z,2.66
2022-08-01T19:30:25.579Z,2.66
2022-08-01T19:32:56.095Z,2.66
2022-08-01T19:35:25.328Z,2.47
2022-08-01T19:37:54.286Z,2.85
2022-08-01T19:40:26.113Z,2.66
2022-08-01T19:42:55.918Z,2.85
2022-08-01T19:45:23.081Z,2.85
2022-08-01T19:47:56.522Z,2.66
2022-08-01T19:50:27.822Z,2.66
2022-08-01T19:52:57.720Z,2.47
2022-08-01T19:55:27.112Z,2.85
2022-08-01T19:58:24.568Z,2.85
2022-08-01T20:00:44.621Z,3.23
2022-08-01T20:03:17.857Z,2.85
2022-08-01T20:05:45.149Z,2.66
2022-08-01T20:08:13.127Z,3.04
2022-08-01T20:10:41.194Z,2.85
2022-08-01T20:13:11.033Z,2.85
2022-08-01T20:15:39.280Z,2.47
2022-08-01T20:18:07.404Z,3.04
2022-08-01T20:20:37.380Z,2.66
2022-08-01T20:23:10.669Z,3.23
2022-08-01T20:25:49.687Z,3.04
2022-08-01T20:28:22.749Z,3.23
2022-08-01T20:31:01.105Z,3.42
2022-08-01T20:33:31.349Z,3.04
2022-08-01T20:36:00.749Z,3.42
2022-08-01T20:38:28.938Z,3.42
2022-08-01T20:41:02.312Z,3.23
2022-08-01T20:43:30.299Z,2.85
2022-08-01T20:45:58.342Z,3.04
2022-08-01T20:48:31.295Z,3.04
2022-08-01T20:51:16.048Z,3.23
2022-08-01T20:53:49.360Z,3.61
2022-08-01T20:56:19.057Z,3.04
2022-08-01T20:59:54.551Z,3.61
2022-08-01T21:02:49.054Z,3.61
2022-08-01T21:05:32.188Z,3.42
2022-08-01T21:08:29.985Z,3.80
2022-08-01T21:10:58.590Z,3.61
2022-08-01T21:13:49.127Z,2.85
2022-08-01T21:16:26.428Z,3.61
2022-08-01T21:19:18.997Z,3.04
2022-08-01T21:22:14.037Z,2.66
2022-08-01T21:24:57.679Z,3.23
2022-08-01T21:27:33.455Z,2.85
2022-08-01T21:30:05.387Z,2.85
2022-08-01T21:32:35.306Z,3.04
2022-08-01T21:35:05.163Z,2.85
2022-08-01T21:37:31.979Z,3.23
2022-08-01T21:40:02.684Z,3.23
2022-08-01T21:42:39.672Z,2.66
2022-08-01T21:45:09.607Z,3.42
2022-08-01T21:47:38.066Z,3.23
2022-08-01T21:50:05.647Z,2.85
2022-08-01T21:52:44.724Z,3.80
2022-08-01T21:55:35.418Z,3.23
2022-08-01T21:58:42.935Z,2.85
2022-08-01T22:01:53.129Z,2.85
2022-08-01T22:04:48.362Z,3.23
2022-08-01T22:07:18.665Z,3.42
2022-08-01T22:09:49.887Z,3.61
2022-08-01T22:12:20.292Z,3.42
2022-08-01T22:14:56.012Z,3.23
2022-08-01T22:17:25.017Z,3.61
2022-08-01T22:19:55.121Z,3.04
2022-08-01T22:22:51.521Z,3.04
2022-08-01T22:25:16.595Z,3.42
2022-08-01T22:28:08.169Z,3.42
2022-08-01T22:30:34.616Z,3.04
2022-08-01T22:33:07.840Z,3.42
2022-08-01T22:35:45.607Z,3.23
2022-08-01T22:38:12.619Z,3.42
2022-08-01T22:40:50.661Z,3.04
2022-08-01T22:43:58.804Z,3.23
2022-08-01T22:46:44.947Z,3.61
2022-08-01T22:49:17.893Z,3.42
2022-08-01T22:51:53.578Z,3.61
2022-08-01T22:54:30.220Z,3.42
2022-08-01T22:57:02.254Z,3.61
2022-08-01T22:59:59.197Z,3.80
2022-08-01T23:02:29.352Z,3.80
2022-08-01T23:05:07.429Z,3.04
2022-08-01T23:07:39.854Z,3.61
2022-08-01T23:10:08.817Z,3.23
2022-08-01T23:12:38.002Z,2.85
2022-08-01T23:15:06.837Z,3.61
2022-08-01T23:17:34.384Z,3.99
2022-08-01T23:20:06.452Z,3.23
2022-08-01T23:22:36.648Z,3.61
2022-08-01T23:25:09.542Z,3.23
2022-08-01T23:27:51.539Z,3.23
2022-08-01T23:30:33.913Z,3.23
2022-08-01T23:33:01.314Z,3.42
2022-08-01T23:35:30.228Z,3.80
2022-08-01T23:38:02.759Z,3.23
2022-08-01T23:40:33.375Z,3.04
2022-08-01T23:43:02.403Z,3.61
2022-08-01T23:45:58.577Z,3.23
2022-08-01T23:48:16.076Z,3.04
2022-08-01T23:50:43.428Z,3.04
2022-08-01T23:53:10.462Z,3.23
2022-08-01T23:55:40.551Z,3.04
2022-08-01T23:58:10.434Z,3.61
